Time;durP1;ratioP1;P1;durP2;ratioP2;P2;SDS_P1;SDS_P2;PMS_P1;PMS_P2;Temp;Humidity;BMP_temperature;BMP_pressure;BME280_temperature;BME280_humidity;BME280_pressure;Samples;Min_cycle;Max_cycle;Signal;HPM_P1;HPM_P2
2022/06/27 00:01:57;;;;;;;8.25;7.38;;;21.60;99.90;;;;;;6165215;28;20283;-68
2022/06/27 00:05:05;;;;;;;7.32;6.93;;;21.60;99.90;;;;;;6165215;29;20271;-68
2022/06/27 00:08:15;;;;;;;7.38;6.95;;;21.60;99.90;;;;;;6180783;28;20302;-68
2022/06/27 00:11:21;;;;;;;8.10;7.45;;;21.50;99.90;;;;;;6188577;28;20278;-68
2022/06/27 00:14:27;;;;;;;8.32;7.60;;;21.50;99.90;;;;;;6188107;28;20289;-68
2022/06/27 00:17:32;;;;;;;8.07;7.43;;;21.50;99.90;;;;;;6187799;28;20459;-68
2022/06/27 00:20:39;;;;;;;7.38;6.82;;;21.50;99.90;;;;;;6188490;28;20594;-67
2022/06/27 00:23:44;;;;;;;7.75;7.18;;;21.40;99.90;;;;;;6188588;28;20274;-67
2022/06/27 00:26:50;;;;;;;7.32;6.95;;;21.40;99.90;;;;;;6188024;28;20547;-68
2022/06/27 00:29:55;;;;;;;7.30;6.82;;;21.40;99.90;;;;;;6188399;28;20273;-67
2022/06/27 00:33:01;;;;;;;7.60;6.93;;;21.30;99.90;;;;;;6188351;28;20293;-67
2022/06/27 00:36:08;;;;;;;7.43;6.80;;;21.40;99.90;;;;;;6187857;28;20273;-67
2022/06/27 00:39:14;;;;;;;8.68;7.82;;;21.50;99.90;;;;;;6171051;28;20283;-68
2022/06/27 00:42:19;;;;;;;7.93;7.40;;;21.50;99.90;;;;;;6188148;28;20288;-67
2022/06/27 00:45:26;;;;;;;7.68;7.18;;;21.60;99.90;;;;;;6188254;28;20273;-67
2022/06/27 00:48:32;;;;;;;7.15;6.75;;;21.60;99.90;;;;;;6171092;28;20273;-67
2022/06/27 00:51:39;;;;;;;7.57;7.18;;;21.50;99.90;;;;;;6187589;28;20467;-68
2022/06/27 00:54:48;;;;;;;8.18;7.38;;;21.50;99.90;;;;;;6170688;28;20297;-67
2022/06/27 00:57:54;;;;;;;7.85;7.18;;;21.50;99.90;;;;;;6187943;28;20289;-67
2022/06/27 01:01:00;;;;;;;7.40;7.00;;;21.50;99.90;;;;;;6187957;28;20274;-68
2022/06/27 01:04:05;;;;;;;7.38;6.90;;;21.50;99.90;;;;;;6164368;28;20274;-68
2022/06/27 01:07:13;;;;;;;10.40;7.38;;;21.40;99.90;;;;;;6164134;28;20306;-67
2022/06/27 01:10:19;;;;;;;7.95;7.20;;;21.30;99.90;;;;;;6163984;29;20275;-68
2022/06/27 01:13:25;;;;;;;7.47;6.93;;;21.30;99.90;;;;;;6163009;28;20294;-67
2022/06/27 01:16:30;;;;;;;8.25;7.32;;;21.20;99.90;;;;;;6164145;28;20275;-67
2022/06/27 01:19:36;;;;;;;7.07;6.55;;;21.30;99.90;;;;;;6164177;28;20274;-67
2022/06/27 01:22:42;;;;;;;7.40;6.82;;;21.40;99.90;;;;;;6163643;29;20287;-68
2022/06/27 01:25:48;;;;;;;6.93;6.63;;;21.30;99.90;;;;;;6163701;28;20271;-67
2022/06/27 01:28:53;;;;;;;7.93;7.32;;;21.40;99.90;;;;;;6162855;28;20279;-67
2022/06/27 01:32:01;;;;;;;7.95;7.05;;;21.30;99.90;;;;;;6166504;28;20273;-67
2022/06/27 01:35:10;;;;;;;7.38;6.95;;;21.40;99.90;;;;;;6168236;29;20298;-67
2022/06/27 01:38:16;;;;;;;6.90;6.50;;;21.20;99.90;;;;;;6167387;28;20279;-67
2022/06/27 01:41:22;;;;;;;7.32;7.00;;;21.20;99.90;;;;;;6167068;29;20274;-67
2022/06/27 01:44:30;;;;;;;9.23;6.93;;;21.20;99.90;;;;;;6166637;28;20557;-67
2022/06/27 01:47:35;;;;;;;7.20;6.55;;;21.30;99.90;;;;;;6168069;29;20271;-67
2022/06/27 01:50:49;;;;;;;7.68;7.13;;;21.20;99.90;;;;;;6167015;28;20278;-67
2022/06/27 01:53:56;;;;;;;7.38;7.00;;;21.20;99.90;;;;;;6166874;28;20290;-67
2022/06/27 01:57:01;;;;;;;7.35;6.78;;;21.20;99.90;;;;;;6167765;29;20279;-67
2022/06/27 02:00:09;;;;;;;7.00;6.45;;;21.10;99.90;;;;;;6150899;29;20581;-66
2022/06/27 02:03:38;;;;;;;7.63;7.03;;;21.00;99.90;;;;;;6167576;28;20558;-66
2022/06/27 02:06:45;;;;;;;7.80;7.10;;;21.00;99.90;;;;;;6171732;28;20298;-66
2022/06/27 02:09:51;;;;;;;11.20;6.60;;;21.00;99.90;;;;;;6174136;28;20274;-67
2022/06/27 02:12:59;;;;;;;6.25;5.85;;;21.00;99.90;;;;;;6173765;28;20273;-66
2022/06/27 02:16:07;;;;;;;7.28;6.80;;;20.90;99.90;;;;;;6174072;28;20485;-66
2022/06/27 02:19:15;;;;;;;7.50;6.95;;;20.90;99.90;;;;;;6174064;28;20273;-67
2022/06/27 02:22:20;;;;;;;6.60;6.13;;;20.90;99.90;;;;;;6191063;28;20273;-67
2022/06/27 02:25:26;;;;;;;6.75;6.35;;;20.90;99.90;;;;;;6191092;28;20293;-67
2022/06/27 02:28:34;;;;;;;6.60;6.20;;;20.90;99.90;;;;;;6191060;28;20277;-67
2022/06/27 02:31:45;;;;;;;6.70;6.20;;;21.00;99.90;;;;;;6190121;28;20273;-67
2022/06/27 02:34:52;;;;;;;6.22;5.90;;;21.10;99.90;;;;;;6190340;28;20302;-67
2022/06/27 02:37:59;;;;;;;6.75;6.18;;;21.10;99.90;;;;;;6190998;28;20274;-67
2022/06/27 02:41:08;;;;;;;6.22;5.72;;;21.20;99.90;;;;;;6173254;28;20269;-67
2022/06/27 02:44:15;;;;;;;6.13;5.57;;;21.30;99.90;;;;;;6190269;28;20273;-67
2022/06/27 02:47:22;;;;;;;6.57;5.80;;;21.30;99.90;;;;;;6173465;28;20273;-67
2022/06/27 02:50:28;;;;;;;5.90;5.70;;;21.30;99.90;;;;;;6173531;28;20274;-67
2022/06/27 02:53:37;;;;;;;5.65;5.45;;;21.30;99.90;;;;;;6173355;28;20278;-68
2022/06/27 02:57:08;;;;;;;6.15;5.65;;;21.40;99.90;;;;;;6189132;28;20279;-68
2022/06/27 03:00:16;;;;;;;6.28;5.78;;;21.40;99.90;;;;;;6172917;28;20274;-68
2022/06/27 03:03:22;;;;;;;5.88;5.38;;;21.50;99.90;;;;;;6172621;28;20274;-68
2022/06/27 03:06:29;;;;;;;8.38;5.68;;;21.40;99.90;;;;;;6166643;28;20278;-68
2022/06/27 03:09:36;;;;;;;5.45;5.05;;;21.40;99.90;;;;;;6164998;29;20278;-68
2022/06/27 03:12:43;;;;;;;6.43;6.03;;;21.40;99.90;;;;;;6164924;29;20294;-66
2022/06/27 03:15:49;;;;;;;5.75;5.35;;;21.50;99.90;;;;;;6164719;28;20293;-66
2022/06/27 03:18:55;;;;;;;6.32;5.75;;;21.40;99.90;;;;;;6165025;28;20274;-67
2022/06/27 03:22:20;;;;;;;5.57;5.38;;;21.40;99.90;;;;;;6164610;29;20294;-67
2022/06/27 03:25:26;;;;;;;5.90;5.60;;;21.50;99.90;;;;;;6164685;28;20278;-67
2022/06/27 03:28:33;;;;;;;5.88;5.40;;;21.70;99.90;;;;;;6165777;29;20276;-67
2022/06/27 03:31:40;;;;;;;6.45;5.85;;;21.70;99.90;;;;;;6164481;28;20275;-67
2022/06/27 03:34:48;;;;;;;5.43;5.07;;;21.70;99.90;;;;;;6164290;28;20294;-67
2022/06/27 03:37:57;;;;;;;6.00;5.53;;;21.70;99.90;;;;;;6164356;28;20294;-67
2022/06/27 03:41:02;;;;;;;6.25;5.68;;;21.70;99.90;;;;;;6164157;29;20273;-67
2022/06/27 03:44:11;;;;;;;5.30;5.07;;;21.70;99.90;;;;;;6164224;29;20274;-67
2022/06/27 03:47:23;;;;;;;5.13;4.78;;;21.70;99.90;;;;;;6148508;29;20270;-68
2022/06/27 03:50:46;;;;;;;5.28;5.10;;;21.80;99.90;;;;;;6164873;29;20274;-68
2022/06/27 03:53:52;;;;;;;6.38;5.30;;;21.90;99.90;;;;;;6164656;28;20274;-68
2022/06/27 03:56:57;;;;;;;5.55;5.20;;;22.00;99.90;;;;;;6163943;28;20294;-67
2022/06/27 04:00:09;;;;;;;5.65;5.15;;;22.00;99.90;;;;;;6164198;28;20274;-68
2022/06/27 04:03:18;;;;;;;6.00;4.97;;;22.00;99.90;;;;;;6164906;29;20453;-68
2022/06/27 04:06:30;;;;;;;6.00;5.53;;;22.00;99.90;;;;;;6165485;28;20278;-68
2022/06/27 04:09:36;;;;;;;5.53;5.25;;;21.90;99.90;;;;;;6171569;28;20274;-68
2022/06/27 04:12:41;;;;;;;5.38;5.10;;;22.00;99.90;;;;;;6171623;28;20273;-68
2022/06/27 04:16:07;;;;;;;4.82;4.63;;;22.00;99.90;;;;;;6188383;28;20294;-68
2022/06/27 04:19:45;;;;;;;5.43;4.85;;;22.10;99.90;;;;;;6155913;28;20274;-68
2022/06/27 04:22:50;;;;;;;5.53;5.13;;;22.20;99.90;;;;;;6188685;28;20274;-67
2022/06/27 04:26:34;;;;;;;5.72;5.43;;;22.20;99.90;;;;;;6114449;29;20469;-68
2022/06/27 04:29:39;;;;;;;6.57;5.80;;;22.30;99.90;;;;;;6114474;29;20275;-67
2022/06/27 04:32:48;;;;;;;5.85;5.40;;;22.30;99.90;;;;;;6170541;28;20432;-67
2022/06/27 04:35:53;;;;;;;5.63;5.20;;;22.40;99.90;;;;;;6188557;28;20293;-67
2022/06/27 04:38:59;;;;;;;5.47;5.05;;;22.50;99.90;;;;;;6171079;28;20274;-68
2022/06/27 04:42:26;;;;;;;6.15;4.68;;;22.50;99.90;;;;;;6187619;28;20359;-67
2022/06/27 04:45:33;;;;;;;5.53;5.05;;;22.60;99.90;;;;;;6170998;28;20281;-67
2022/06/27 04:48:49;;;;;;;5.90;5.00;;;22.60;99.90;;;;;;6170621;28;20551;-67
2022/06/27 04:51:54;;;;;;;6.70;4.72;;;22.70;99.90;;;;;;6187970;28;20273;-66
2022/06/27 04:55:00;;;;;;;7.45;4.80;;;22.70;99.90;;;;;;6170658;28;20274;-67
2022/06/27 04:58:06;;;;;;;5.10;4.60;;;22.70;99.90;;;;;;6170409;28;20293;-67
2022/06/27 05:01:13;;;;;;;8.15;4.75;;;22.80;99.90;;;;;;6170412;28;20275;-67
2022/06/27 05:04:39;;;;;;;8.10;5.03;;;22.90;99.90;;;;;;6161712;29;20267;-67
2022/06/27 05:07:44;;;;;;;8.68;5.30;;;23.00;99.90;;;;;;6171832;28;20314;-67
2022/06/27 05:10:50;;;;;;;5.30;4.80;;;23.00;99.90;;;;;;6183284;28;20294;-67
2022/06/27 05:13:55;;;;;;;7.78;5.13;;;23.10;99.90;;;;;;6169106;28;20553;-67
2022/06/27 05:17:11;;;;;;;7.57;5.05;;;23.10;99.90;;;;;;6183077;28;20294;-67
2022/06/27 05:20:18;;;;;;;5.35;4.47;;;23.20;99.90;;;;;;6183303;28;20274;-67
2022/06/27 05:23:23;;;;;;;8.95;4.90;;;23.60;99.90;;;;;;6183114;28;20466;-67
2022/06/27 05:26:29;;;;;;;6.05;4.30;;;27.00;97.50;;;;;;6183123;28;20298;-67
2022/06/27 05:29:35;;;;;;;15.50;4.95;;;26.40;96.80;;;;;;6183199;28;20278;-67
2022/06/27 05:32:41;;;;;;;4.63;4.28;;;26.00;97.60;;;;;;6183280;28;20274;-67
2022/06/27 05:35:48;;;;;;;6.95;4.55;;;25.90;97.90;;;;;;6183242;28;20274;-67
2022/06/27 05:38:53;;;;;;;10.38;4.28;;;25.90;98.40;;;;;;6182684;28;20294;-67
2022/06/27 05:41:59;;;;;;;7.63;5.07;;;25.80;97.90;;;;;;6167978;28;20379;-68
2022/06/27 05:45:07;;;;;;;8.43;5.22;;;25.70;98.00;;;;;;6182817;28;20368;-68
2022/06/27 05:48:23;;;;;;;4.70;4.35;;;25.70;98.10;;;;;;6182627;28;20278;-68
2022/06/27 05:51:52;;;;;;;4.47;4.10;;;25.80;98.40;;;;;;6182724;28;20274;-68
2022/06/27 05:54:59;;;;;;;5.07;4.47;;;25.80;97.90;;;;;;6182602;28;20274;-68
2022/06/27 05:58:07;;;;;;;9.70;4.90;;;25.80;98.50;;;;;;6182536;28;20298;-68
2022/06/27 06:01:12;;;;;;;8.50;4.65;;;25.90;98.60;;;;;;6182535;28;20278;-68
2022/06/27 06:04:20;;;;;;;11.15;4.38;;;25.90;97.40;;;;;;6182390;28;20558;-68
2022/06/27 06:07:27;;;;;;;17.58;4.82;;;26.00;98.10;;;;;;6176737;28;20302;-67
2022/06/27 06:10:33;;;;;;;8.13;4.70;;;26.10;98.10;;;;;;6190964;28;20273;-67
2022/06/27 06:13:41;;;;;;;5.68;4.80;;;26.20;97.30;;;;;;6174088;28;20277;-67
2022/06/27 06:16:47;;;;;;;5.28;4.78;;;26.20;97.30;;;;;;6173148;28;20323;-68
2022/06/27 06:19:52;;;;;;;5.03;4.82;;;26.30;96.90;;;;;;6173773;28;20273;-67
2022/06/27 06:22:59;;;;;;;8.43;4.07;;;26.40;96.70;;;;;;6173782;28;20432;-68
2022/06/27 06:26:06;;;;;;;10.30;4.47;;;26.40;96.50;;;;;;6173933;28;20278;-68
2022/06/27 06:29:17;;;;;;;4.70;4.35;;;26.50;96.30;;;;;;6173813;28;20282;-67
2022/06/27 06:32:29;;;;;;;7.95;4.88;;;26.50;96.50;;;;;;6173600;28;20274;-67
2022/06/27 06:35:35;;;;;;;11.40;5.00;;;26.60;95.70;;;;;;6173464;28;20273;-68
2022/06/27 06:38:42;;;;;;;11.85;4.55;;;26.60;95.50;;;;;;6173176;28;20293;-67
2022/06/27 06:41:48;;;;;;;14.63;4.60;;;26.60;95.90;;;;;;6172961;28;20274;-67
2022/06/27 06:44:55;;;;;;;11.50;4.50;;;26.70;95.70;;;;;;6173166;28;20278;-67
2022/06/27 06:48:08;;;;;;;6.82;4.57;;;26.70;95.50;;;;;;6173038;28;20277;-68
2022/06/27 06:51:16;;;;;;;12.50;5.43;;;26.80;96.40;;;;;;6173130;28;20459;-67
2022/06/27 06:54:26;;;;;;;5.80;4.45;;;27.00;95.80;;;;;;6189955;28;20310;-68
2022/06/27 06:57:31;;;;;;;6.28;4.93;;;27.00;95.10;;;;;;6190068;28;20298;-68
2022/06/27 07:00:39;;;;;;;9.43;4.28;;;27.00;94.50;;;;;;6189688;28;20294;-68
2022/06/27 07:03:45;;;;;;;8.27;4.60;;;27.00;94.70;;;;;;6186005;28;20268;-68
2022/06/27 07:06:51;;;;;;;4.75;4.35;;;27.10;94.90;;;;;;6166131;28;20298;-68
2022/06/27 07:09:58;;;;;;;12.70;4.25;;;27.20;95.10;;;;;;6165777;28;20304;-67
2022/06/27 07:13:03;;;;;;;5.47;4.72;;;27.30;94.40;;;;;;6165943;28;20302;-67
2022/06/27 07:16:10;;;;;;;10.18;4.28;;;27.30;94.50;;;;;;6165520;29;20329;-67
2022/06/27 07:19:16;;;;;;;7.10;4.00;;;27.40;94.50;;;;;;6166021;28;20294;-68
2022/06/27 07:22:23;;;;;;;6.65;4.38;;;27.40;93.90;;;;;;6165642;29;20573;-67
2022/06/27 07:25:30;;;;;;;6.80;4.47;;;27.30;93.50;;;;;;6165687;29;20278;-68
2022/06/27 07:28:35;;;;;;;4.97;4.55;;;27.30;93.80;;;;;;6164758;28;20282;-68
2022/06/27 07:31:41;;;;;;;22.95;5.30;;;27.30;93.80;;;;;;6165794;28;20569;-68
2022/06/27 07:34:46;;;;;;;4.88;4.25;;;27.50;92.50;;;;;;6165620;29;20278;-68
2022/06/27 07:37:52;;;;;;;6.32;4.43;;;27.60;93.10;;;;;;6165583;28;20589;-68
2022/06/27 07:40:58;;;;;;;4.45;4.15;;;27.60;92.30;;;;;;6165082;29;20283;-67
2022/06/27 07:44:05;;;;;;;4.15;3.90;;;27.50;92.00;;;;;;6165247;29;20545;-67
2022/06/27 07:47:11;;;;;;;33.72;7.78;;;27.60;92.20;;;;;;6165069;29;20274;-68
2022/06/27 07:53:37;;;;;;;4.97;4.25;;;27.80;92.00;;;;;;6164983;29;20275;-68
2022/06/27 07:56:46;;;;;;;7.32;4.25;;;27.80;91.90;;;;;;6164938;29;20286;-68
2022/06/27 08:00:09;;;;;;;5.25;4.72;;;27.80;91.70;;;;;;6164929;29;20294;-68
2022/06/27 08:03:39;;;;;;;11.85;4.38;;;28.00;91.20;;;;;;6165135;29;20279;-68
2022/06/27 08:06:49;;;;;;;6.45;4.72;;;28.00;91.80;;;;;;6141172;29;20303;-68
2022/06/27 08:09:55;;;;;;;4.43;4.00;;;28.10;91.20;;;;;;6141031;29;20282;-68
2022/06/27 08:13:02;;;;;;;5.50;4.80;;;28.00;91.10;;;;;;6140741;29;20453;-68
2022/06/27 08:16:08;;;;;;;4.70;4.25;;;28.10;91.30;;;;;;6140524;29;20582;-68
2022/06/27 08:19:14;;;;;;;8.30;4.35;;;28.20;91.30;;;;;;6140645;29;20295;-68
2022/06/27 08:22:22;;;;;;;7.35;4.50;;;28.20;90.80;;;;;;6140330;29;20279;-67
2022/06/27 08:25:28;;;;;;;7.45;4.32;;;28.10;90.60;;;;;;6140241;29;20288;-67
2022/06/27 08:28:35;;;;;;;10.52;4.90;;;28.20;90.20;;;;;;6140450;29;20279;-68
2022/06/27 08:31:41;;;;;;;4.78;4.30;;;28.40;88.90;;;;;;6140726;29;20271;-68
2022/06/27 08:34:47;;;;;;;6.43;4.10;;;28.40;87.90;;;;;;6140594;29;20275;-68
2022/06/27 08:37:53;;;;;;;6.72;4.20;;;28.40;90.90;;;;;;6140251;29;20463;-67
2022/06/27 08:40:59;;;;;;;11.68;4.53;;;28.40;90.00;;;;;;6140226;29;20466;-67
2022/06/27 08:44:06;;;;;;;5.80;3.80;;;28.30;89.00;;;;;;6140675;29;20275;-68
2022/06/27 08:47:16;;;;;;;6.97;4.00;;;28.40;88.90;;;;;;6140372;29;20271;-68
2022/06/27 08:50:23;;;;;;;10.35;4.20;;;28.40;88.60;;;;;;6140533;29;20278;-67
2022/06/27 08:53:32;;;;;;;6.70;4.30;;;28.40;86.30;;;;;;6140338;29;20578;-68
2022/06/27 08:56:37;;;;;;;4.30;3.90;;;28.50;85.10;;;;;;6140616;29;20279;-68
2022/06/27 08:59:44;;;;;;;7.60;4.00;;;28.50;86.70;;;;;;6140333;29;20300;-68
2022/06/27 09:02:49;;;;;;;4.88;4.10;;;28.50;87.00;;;;;;6139908;29;20270;-67
2022/06/27 09:05:58;;;;;;;4.55;4.15;;;28.40;86.50;;;;;;6161221;29;20266;-67
2022/06/27 09:09:08;;;;;;;4.88;3.78;;;28.40;84.10;;;;;;6186055;28;20310;-68
2022/06/27 09:12:13;;;;;;;4.15;3.95;;;28.40;84.60;;;;;;6187751;28;20435;-68
2022/06/27 09:15:20;;;;;;;11.57;4.28;;;28.50;84.60;;;;;;6187672;28;20297;-67
2022/06/27 09:18:28;;;;;;;4.88;4.43;;;28.60;84.60;;;;;;6187692;28;20273;-68
2022/06/27 09:21:34;;;;;;;6.63;3.90;;;28.50;84.30;;;;;;6187734;28;20293;-68
2022/06/27 09:24:59;;;;;;;4.82;3.95;;;28.50;84.20;;;;;;6187686;28;20269;-69
2022/06/27 09:28:05;;;;;;;9.95;4.25;;;28.50;85.00;;;;;;6187687;28;20274;-69
2022/06/27 09:31:28;;;;;;;10.07;4.68;;;28.50;84.80;;;;;;6187593;28;20277;-68
2022/06/27 09:34:34;;;;;;;5.55;4.15;;;28.50;85.80;;;;;;6187582;28;20274;-68
2022/06/27 09:37:52;;;;;;;6.20;3.95;;;28.60;85.00;;;;;;6187603;28;20277;-68
2022/06/27 09:40:57;;;;;;;5.03;4.40;;;28.60;85.70;;;;;;6187290;28;20294;-68
2022/06/27 09:44:10;;;;;;;8.15;4.30;;;28.60;85.90;;;;;;6187519;28;20270;-68
2022/06/27 09:47:20;;;;;;;5.65;4.55;;;28.60;85.10;;;;;;6186939;28;20346;-68
2022/06/27 09:50:26;;;;;;;9.88;4.35;;;28.50;85.00;;;;;;6187320;28;20274;-68
2022/06/27 09:53:31;;;;;;;26.98;5.72;;;28.50;86.70;;;;;;6191808;28;20273;-68
2022/06/27 09:56:39;;;;;;;10.35;4.70;;;28.40;86.80;;;;;;6191583;28;20269;-67
2022/06/27 09:59:46;;;;;;;9.10;4.60;;;28.50;88.20;;;;;;6191498;28;20367;-67
2022/06/27 10:02:53;;;;;;;9.30;4.60;;;28.50;89.50;;;;;;6191357;28;20278;-68
2022/06/27 10:05:59;;;;;;;7.10;4.30;;;28.50;90.20;;;;;;6152694;29;20334;-67
2022/06/27 10:09:08;;;;;;;5.00;4.70;;;28.60;88.50;;;;;;6166916;29;20301;-67
2022/06/27 10:12:24;;;;;;;4.88;4.65;;;28.70;89.50;;;;;;6167630;29;20275;-68
2022/06/27 10:15:30;;;;;;;23.20;5.63;;;28.70;88.40;;;;;;6166981;29;20275;-68
2022/06/27 10:19:03;;;;;;;9.38;5.00;;;28.70;87.60;;;;;;6167609;29;20270;-68
2022/06/27 10:22:26;;;;;;;5.05;4.53;;;28.70;87.90;;;;;;6167243;29;20291;-68
2022/06/27 10:25:38;;;;;;;4.80;4.50;;;28.70;86.60;;;;;;6166759;29;20279;-68
2022/06/27 10:28:43;;;;;;;5.47;4.45;;;28.80;87.70;;;;;;6167064;29;20294;-68
2022/06/27 10:31:48;;;;;;;5.40;4.97;;;28.80;87.80;;;;;;6166927;29;20270;-68
2022/06/27 10:35:23;;;;;;;6.75;5.13;;;28.80;87.70;;;;;;6166999;29;20562;-68
2022/06/27 10:38:32;;;;;;;8.98;4.93;;;28.70;87.10;;;;;;6166864;29;20275;-69
2022/06/27 10:41:42;;;;;;;5.20;4.65;;;28.80;87.80;;;;;;6166182;29;20290;-68
2022/06/27 10:44:47;;;;;;;5.35;4.97;;;28.80;87.70;;;;;;6166735;28;20576;-67
2022/06/27 10:47:54;;;;;;;6.15;4.50;;;28.90;87.20;;;;;;6166791;28;20279;-67
2022/06/27 10:51:21;;;;;;;12.57;5.35;;;28.90;87.30;;;;;;6166160;29;20275;-67
2022/06/27 10:54:38;;;;;;;5.50;5.07;;;29.00;88.50;;;;;;6166163;29;20287;-68
2022/06/27 10:57:45;;;;;;;7.10;4.78;;;29.10;88.60;;;;;;6166563;28;20275;-67
2022/06/27 11:00:51;;;;;;;9.18;4.65;;;29.00;89.30;;;;;;6165977;29;20294;-68
2022/06/27 11:03:57;;;;;;;5.97;5.40;;;29.00;88.20;;;;;;6166135;28;20566;-68
2022/06/27 11:07:08;;;;;;;5.45;4.80;;;28.90;86.90;;;;;;6172638;28;20557;-68
2022/06/27 11:10:13;;;;;;;4.97;4.68;;;28.90;86.20;;;;;;6190119;28;20588;-68
2022/06/27 11:13:39;;;;;;;10.00;5.35;;;29.00;85.80;;;;;;6189560;28;20286;-68
2022/06/27 11:16:45;;;;;;;10.25;4.88;;;29.00;85.70;;;;;;6189975;28;20449;-68
2022/06/27 11:20:16;;;;;;;7.32;4.90;;;29.00;86.30;;;;;;6189615;28;20326;-68
2022/06/27 11:24:00;;;;;;;4.70;4.43;;;29.10;86.30;;;;;;6189878;28;20278;-68
2022/06/27 11:27:05;;;;;;;7.78;4.80;;;29.20;85.90;;;;;;6189819;28;20270;-68
2022/06/27 11:33:48;;;;;;;10.43;5.05;;;29.30;84.50;;;;;;6172053;28;20269;-68
2022/06/27 11:36:54;;;;;;;9.63;5.25;;;29.30;83.90;;;;;;6189608;28;20270;-67
2022/06/27 11:40:04;;;;;;;6.63;5.00;;;29.30;84.20;;;;;;6189327;28;20273;-69
2022/06/27 11:43:10;;;;;;;11.93;4.95;;;29.30;83.70;;;;;;6189210;28;20294;-67
2022/06/27 11:46:28;;;;;;;8.82;4.80;;;29.30;83.10;;;;;;6189307;28;20273;-67
2022/06/27 11:49:35;;;;;;;9.80;4.75;;;29.40;84.70;;;;;;6189085;28;20303;-68
2022/06/27 11:52:50;;;;;;;4.80;4.60;;;29.40;84.20;;;;;;6188739;28;20277;-68
2022/06/27 11:55:57;;;;;;;6.03;4.70;;;29.50;84.70;;;;;;6188890;28;20274;-68
2022/06/27 11:59:02;;;;;;;5.45;4.95;;;29.60;82.70;;;;;;6188582;28;20460;-69
2022/06/27 12:02:07;;;;;;;5.70;4.60;;;29.70;82.00;;;;;;6188819;28;20537;-67
2022/06/27 12:05:18;;;;;;;5.00;4.60;;;29.60;82.70;;;;;;6173450;28;20266;-68
2022/06/27 12:08:24;;;;;;;4.55;4.50;;;29.60;82.20;;;;;;6164462;29;20461;-68
2022/06/27 12:11:31;;;;;;;6.75;4.90;;;29.80;81.20;;;;;;6165114;29;20274;-68
2022/06/27 12:14:45;;;;;;;14.07;5.15;;;29.70;81.30;;;;;;6164271;28;20275;-68
2022/06/27 12:17:57;;;;;;;6.68;5.10;;;29.80;80.10;;;;;;6164847;29;20322;-68
2022/06/27 12:21:03;;;;;;;4.60;4.40;;;29.70;81.30;;;;;;6164919;28;20278;-69
2022/06/27 12:24:09;;;;;;;6.03;5.40;;;29.70;80.10;;;;;;6164181;29;20294;-68
2022/06/27 12:27:15;;;;;;;7.05;5.15;;;29.80;79.30;;;;;;6164306;29;20274;-68
2022/06/27 12:30:21;;;;;;;5.00;4.50;;;29.70;79.80;;;;;;6164675;28;20278;-67
2022/06/27 12:33:26;;;;;;;11.10;4.82;;;29.90;81.20;;;;;;6164148;29;20472;-67
2022/06/27 12:36:32;;;;;;;5.07;4.68;;;29.80;80.40;;;;;;6164499;28;20274;-68
2022/06/27 12:39:37;;;;;;;6.45;5.00;;;29.90;78.90;;;;;;6163002;29;20274;-68
2022/06/27 12:42:44;;;;;;;6.45;4.90;;;29.80;79.60;;;;;;6163992;28;20298;-68
2022/06/27 12:45:52;;;;;;;9.30;5.07;;;29.80;80.50;;;;;;6163703;29;20452;-68
2022/06/27 12:48:57;;;;;;;8.32;4.53;;;29.80;79.10;;;;;;6164035;28;20274;-68
2022/06/27 12:52:02;;;;;;;10.25;4.68;;;29.80;80.40;;;;;;6164370;29;20557;-68
2022/06/27 12:55:11;;;;;;;9.45;5.47;;;29.90;79.70;;;;;;6163923;29;20274;-68
2022/06/27 12:58:19;;;;;;;5.65;4.90;;;30.00;79.60;;;;;;6164455;28;20578;-68
2022/06/27 13:01:25;;;;;;;5.30;4.80;;;30.00;78.90;;;;;;6163765;29;20455;-68
2022/06/27 13:04:30;;;;;;;5.88;4.55;;;29.90;79.40;;;;;;6163948;29;20301;-69
2022/06/27 13:07:35;;;;;;;8.82;4.57;;;30.00;80.40;;;;;;6174665;28;20569;-68
2022/06/27 13:10:41;;;;;;;5.03;4.82;;;29.90;79.70;;;;;;6187555;28;20273;-67
2022/06/27 13:13:48;;;;;;;4.97;4.68;;;29.90;78.60;;;;;;6187424;28;20277;-68
2022/06/27 13:16:53;;;;;;;11.50;4.85;;;30.00;78.80;;;;;;6187897;28;20278;-68
2022/06/27 13:19:59;;;;;;;4.70;4.35;;;30.10;79.50;;;;;;6187630;28;20568;-68
2022/06/27 13:23:05;;;;;;;6.13;5.55;;;30.10;79.50;;;;;;6187647;28;20293;-68
2022/06/27 13:26:12;;;;;;;12.73;5.28;;;30.10;78.60;;;;;;6188373;28;20561;-68
2022/06/27 13:29:19;;;;;;;5.50;4.95;;;30.10;79.20;;;;;;6192018;28;20277;-68
2022/06/27 13:32:32;;;;;;;6.65;4.75;;;30.30;78.30;;;;;;6192284;28;20277;-68
2022/06/27 13:35:37;;;;;;;5.53;5.00;;;30.40;78.40;;;;;;6192157;28;20273;-68
2022/06/27 13:38:43;;;;;;;8.35;4.75;;;30.40;77.20;;;;;;6191918;28;20273;-68
2022/06/27 13:41:48;;;;;;;6.47;4.97;;;30.40;78.40;;;;;;6191808;28;20277;-68
2022/06/27 13:44:55;;;;;;;4.85;4.45;;;30.50;76.60;;;;;;6191631;28;20298;-68
2022/06/27 13:48:01;;;;;;;5.60;4.70;;;30.50;77.30;;;;;;6191996;28;20274;-68
2022/06/27 13:51:06;;;;;;;5.20;4.90;;;30.70;77.30;;;;;;6191860;28;20277;-68
2022/06/27 13:54:11;;;;;;;5.32;4.70;;;31.20;75.20;;;;;;6191811;28;20278;-68
2022/06/27 13:57:17;;;;;;;4.90;4.50;;;32.30;73.60;;;;;;6191802;28;20277;-68
2022/06/27 14:00:28;;;;;;;5.13;4.70;;;32.30;70.60;;;;;;6191872;28;20273;-68
2022/06/27 14:03:33;;;;;;;7.97;4.40;;;31.80;72.60;;;;;;6188799;28;20293;-68
2022/06/27 14:10:10;;;;;;;5.10;4.80;;;33.00;70.70;;;;;;6167608;29;20279;-68
2022/06/27 14:13:19;;;;;;;6.57;4.80;;;33.00;68.70;;;;;;6167222;29;20274;-68
2022/06/27 14:16:27;;;;;;;4.57;4.45;;;33.40;68.70;;;;;;6167184;29;20277;-68
2022/06/27 14:19:32;;;;;;;7.40;4.35;;;33.20;67.80;;;;;;6167395;29;20319;-68
2022/06/27 14:22:37;;;;;;;6.35;4.93;;;32.30;69.60;;;;;;6167166;29;20273;-67
2022/06/27 14:25:43;;;;;;;7.03;5.03;;;32.00;70.20;;;;;;6167229;29;20534;-67
2022/06/27 14:28:48;;;;;;;6.00;5.40;;;31.50;70.60;;;;;;6166721;29;20274;-67
2022/06/27 14:31:55;;;;;;;5.22;4.72;;;31.20;72.30;;;;;;6166735;29;20273;-68
2022/06/27 14:35:00;;;;;;;5.05;4.75;;;30.90;73.20;;;;;;6166694;28;20278;-68
2022/06/27 14:38:06;;;;;;;5.25;4.82;;;30.80;74.00;;;;;;6166207;28;20274;-67
2022/06/27 14:41:12;;;;;;;6.13;4.65;;;30.90;75.00;;;;;;6166393;28;20461;-67
2022/06/27 14:44:18;;;;;;;7.53;4.70;;;31.00;74.50;;;;;;6166354;28;20294;-68
2022/06/27 14:47:24;;;;;;;4.90;4.40;;;31.30;73.80;;;;;;6166082;29;20275;-68
2022/06/27 14:50:29;;;;;;;7.00;4.93;;;31.90;71.90;;;;;;6166383;28;20279;-68
2022/06/27 14:53:35;;;;;;;6.38;5.15;;;32.10;71.20;;;;;;6166285;28;20278;-68
2022/06/27 14:56:40;;;;;;;5.93;4.80;;;32.40;71.00;;;;;;6165884;29;20278;-68
2022/06/27 14:59:46;;;;;;;5.47;4.97;;;31.90;71.20;;;;;;6166143;29;20274;-68
2022/06/27 15:02:53;;;;;;;5.22;4.93;;;31.30;71.90;;;;;;6166205;29;20278;-68
2022/06/27 15:05:58;;;;;;;5.30;5.00;;;31.10;73.80;;;;;;6166406;28;20302;-68
2022/06/27 15:09:03;;;;;;;5.10;4.70;;;31.10;74.30;;;;;;6188652;28;20310;-68
2022/06/27 15:12:11;;;;;;;4.93;4.72;;;31.20;73.20;;;;;;6189643;28;20279;-68
2022/06/27 15:15:16;;;;;;;5.18;4.97;;;30.90;73.90;;;;;;6189763;28;20558;-68
2022/06/27 15:18:23;;;;;;;5.15;4.80;;;30.70;73.50;;;;;;6189339;28;20463;-68
2022/06/27 15:21:28;;;;;;;13.13;4.82;;;30.60;73.90;;;;;;6189671;28;20273;-68
2022/06/27 15:24:53;;;;;;;5.53;5.03;;;30.60;74.80;;;;;;6189209;28;20297;-67
2022/06/27 15:27:58;;;;;;;5.55;5.13;;;30.50;74.70;;;;;;6189613;28;20458;-67
2022/06/27 15:31:03;;;;;;;5.25;5.05;;;30.40;75.70;;;;;;6189067;28;20278;-68
2022/06/27 15:34:10;;;;;;;7.47;4.53;;;30.40;76.70;;;;;;6188977;28;20277;-68
2022/06/27 15:37:16;;;;;;;4.63;4.53;;;30.30;76.00;;;;;;6188750;28;20270;-68
2022/06/27 15:40:21;;;;;;;5.85;5.20;;;30.40;75.80;;;;;;6189082;28;20289;-68
2022/06/27 15:43:26;;;;;;;5.28;4.63;;;30.30;74.80;;;;;;6189338;28;20279;-68
2022/06/27 15:46:32;;;;;;;5.13;4.82;;;30.30;75.20;;;;;;6188820;28;20226;-67
2022/06/27 15:49:39;;;;;;;4.80;4.60;;;30.20;75.10;;;;;;6188269;28;20274;-68
2022/06/27 15:52:44;;;;;;;4.90;4.60;;;30.20;75.00;;;;;;6188709;28;20453;-68
2022/06/27 15:55:50;;;;;;;6.28;5.68;;;30.20;74.90;;;;;;6188776;28;20282;-68
2022/06/27 15:58:55;;;;;;;5.63;5.10;;;30.10;75.50;;;;;;6188733;28;20277;-68
2022/06/27 16:02:00;;;;;;;9.77;5.35;;;30.10;74.90;;;;;;6188664;28;20570;-68
2022/06/27 16:05:10;;;;;;;6.43;5.38;;;30.10;75.30;;;;;;6173793;28;20503;-68
2022/06/27 16:08:17;;;;;;;7.72;5.00;;;30.10;75.50;;;;;;6164420;28;20350;-68
2022/06/27 16:11:22;;;;;;;5.03;4.75;;;29.90;76.00;;;;;;6164865;29;20279;-68
2022/06/27 16:14:33;;;;;;;9.63;4.80;;;29.80;76.30;;;;;;6164714;29;20270;-68
2022/06/27 16:17:38;;;;;;;5.05;4.60;;;30.00;77.00;;;;;;6164729;29;20274;-68
2022/06/27 16:20:46;;;;;;;5.68;5.28;;;30.00;76.00;;;;;;6164900;28;20275;-68
2022/06/27 16:23:51;;;;;;;5.95;5.40;;;30.00;75.80;;;;;;6164276;29;20275;-68
2022/06/27 16:26:56;;;;;;;4.65;4.55;;;29.80;75.10;;;;;;6164232;28;20592;-68
2022/06/27 16:30:01;;;;;;;5.60;5.30;;;29.80;75.00;;;;;;6164235;28;20376;-68